createdAt,value
2022-10-05T00:02:22.042Z,7.65
2022-10-05T00:04:52.448Z,6.50
2022-10-05T00:07:21.096Z,5.90
2022-10-05T00:10:14.417Z,11.15
2022-10-05T00:12:40.934Z,9.30
2022-10-05T00:15:12.049Z,8.13
2022-10-05T00:17:38.848Z,6.72
2022-10-05T00:20:31.604Z,5.20
2022-10-05T00:23:01.773Z,6.93
2022-10-05T00:25:28.581Z,8.93
2022-10-05T00:27:57.424Z,4.68
2022-10-05T00:30:26.494Z,7.07
2022-10-05T00:32:56.107Z,7.00
2022-10-05T00:35:25.934Z,8.95
2022-10-05T00:37:54.702Z,4.80
2022-10-05T00:40:33.289Z,5.25
2022-10-05T00:43:18.192Z,6.88
2022-10-05T00:46:05.014Z,8.50
2022-10-05T00:48:44.151Z,6.47
2022-10-05T00:51:10.635Z,11.02
2022-10-05T00:53:47.898Z,11.05
2022-10-05T00:56:33.223Z,8.30
2022-10-05T00:59:12.009Z,7.65
2022-10-05T01:01:50.915Z,8.82
2022-10-05T01:04:34.156Z,8.02
2022-10-05T01:07:24.926Z,8.02
2022-10-05T01:10:22.589Z,6.23
2022-10-05T01:12:54.143Z,5.55
2022-10-05T01:15:26.483Z,7.53
2022-10-05T01:18:03.025Z,7.78
2022-10-05T01:20:49.884Z,6.95
2022-10-05T01:23:43.530Z,7.55
2022-10-05T01:26:38.900Z,4.75
2022-10-05T01:29:18.510Z,8.65
2022-10-05T01:32:10.649Z,8.27
2022-10-05T01:34:49.628Z,9.07
2022-10-05T01:37:40.725Z,4.70
2022-10-05T01:40:27.429Z,5.82
2022-10-05T01:43:06.029Z,12.07
2022-10-05T01:46:03.022Z,5.03
2022-10-05T01:48:53.769Z,7.18
2022-10-05T01:51:47.839Z,10.63
2022-10-05T01:54:51.642Z,8.93
2022-10-05T01:57:50.392Z,5.30
2022-10-05T02:00:18.638Z,8.80
2022-10-05T02:02:56.975Z,7.10
2022-10-05T02:05:41.024Z,6.07
2022-10-05T02:08:15.628Z,6.60
2022-10-05T02:10:49.175Z,5.45
2022-10-05T02:13:21.467Z,5.78
2022-10-05T02:16:00.502Z,6.05
2022-10-05T02:18:33.872Z,5.57
2022-10-05T02:21:04.561Z,6.43
2022-10-05T02:23:34.402Z,5.22
2022-10-05T02:26:01.593Z,10.00
2022-10-05T02:28:48.058Z,6.43
2022-10-05T02:31:31.011Z,5.97
2022-10-05T02:34:23.619Z,5.68
2022-10-05T02:37:05.254Z,7.95
2022-10-05T02:39:58.754Z,7.25
2022-10-05T02:42:56.351Z,4.97
2022-10-05T02:45:36.290Z,6.30
2022-10-05T02:48:08.284Z,5.60
2022-10-05T02:53:25.884Z,7.40
2022-10-05T02:56:07.756Z,8.50
2022-10-05T02:58:47.935Z,10.27
2022-10-05T03:01:27.393Z,8.93
2022-10-05T03:04:18.445Z,7.95
2022-10-05T03:07:02.087Z,5.00
2022-10-05T03:09:42.055Z,5.47
2022-10-05T03:12:36.212Z,10.77
2022-10-05T03:15:08.987Z,7.53
2022-10-05T03:18:08.627Z,8.05
2022-10-05T03:20:41.341Z,5.38
2022-10-05T03:23:21.127Z,5.03
2022-10-05T03:26:07.957Z,7.40
2022-10-05T03:28:46.759Z,6.32
2022-10-05T03:31:29.564Z,7.07
2022-10-05T03:34:06.179Z,7.22
2022-10-05T03:36:49.257Z,8.77
2022-10-05T03:39:34.506Z,7.50
2022-10-05T03:42:27.592Z,7.75
2022-10-05T03:45:09.170Z,5.05
2022-10-05T03:47:38.825Z,6.28
2022-10-05T03:50:22.796Z,4.57
2022-10-05T03:53:09.278Z,5.63
2022-10-05T03:56:03.299Z,6.78
2022-10-05T03:58:33.577Z,5.50
2022-10-05T04:01:06.362Z,7.85
2022-10-05T04:03:39.244Z,4.97
2022-10-05T04:06:14.739Z,9.57
2022-10-05T04:09:07.216Z,6.07
2022-10-05T04:11:43.162Z,8.50
2022-10-05T04:14:27.603Z,10.77
2022-10-05T04:17:09.417Z,8.63
2022-10-05T04:19:41.444Z,4.70
2022-10-05T04:22:18.176Z,7.07
2022-10-05T04:24:49.742Z,5.75
2022-10-05T04:27:30.845Z,6.63
2022-10-05T04:30:04.145Z,9.05
2022-10-05T04:32:53.674Z,6.25
2022-10-05T04:35:44.738Z,3.78
2022-10-05T04:38:30.092Z,4.55
2022-10-05T04:41:18.898Z,5.72
2022-10-05T04:44:22.567Z,5.80
2022-10-05T04:47:22.357Z,6.95
2022-10-05T04:50:07.550Z,5.18
2022-10-05T04:52:59.708Z,7.03
2022-10-05T04:55:47.471Z,4.32
2022-10-05T04:58:19.826Z,6.32
2022-10-05T05:01:07.983Z,6.75
2022-10-05T05:03:48.705Z,4.35
2022-10-05T05:06:24.348Z,5.43
2022-10-05T05:09:11.935Z,6.07
2022-10-05T05:11:38.401Z,5.97
2022-10-05T05:14:19.527Z,6.55
2022-10-05T05:17:08.499Z,7.30
2022-10-05T05:19:57.475Z,3.67
2022-10-05T05:22:49.665Z,7.20
2022-10-05T05:25:28.757Z,8.00
2022-10-05T05:28:04.098Z,6.80
2022-10-05T05:30:40.547Z,5.57
2022-10-05T05:33:38.389Z,8.52
2022-10-05T05:36:07.913Z,9.02
2022-10-05T05:39:12.158Z,5.15
2022-10-05T05:41:50.179Z,6.63
2022-10-05T05:44:38.586Z,11.02
2022-10-05T05:47:30.044Z,7.07
2022-10-05T05:50:07.594Z,4.03
2022-10-05T05:52:49.268Z,9.00
2022-10-05T05:55:24.357Z,7.60
2022-10-05T05:58:20.442Z,8.38
2022-10-05T06:00:55.008Z,5.97
2022-10-05T06:03:28.100Z,6.47
2022-10-05T06:05:59.272Z,8.07
2022-10-05T06:08:38.388Z,8.43
2022-10-05T06:11:36.519Z,6.63
2022-10-05T06:14:17.108Z,7.97
2022-10-05T06:16:59.018Z,8.52
2022-10-05T06:21:56.881Z,6.25
2022-10-05T06:24:31.674Z,7.28
2022-10-05T06:27:07.616Z,5.50
2022-10-05T06:30:11.066Z,6.80
2022-10-05T06:32:42.750Z,7.70
2022-10-05T06:35:19.325Z,9.00
2022-10-05T06:38:04.886Z,6.78
2022-10-05T06:40:56.308Z,7.65
2022-10-05T06:46:34.550Z,5.10
2022-10-05T06:49:25.656Z,8.45
2022-10-05T06:52:34.179Z,5.40
2022-10-05T06:55:22.880Z,8.07
2022-10-05T06:58:12.089Z,7.80
2022-10-05T07:00:47.348Z,5.18
2022-10-05T07:03:57.828Z,9.20
2022-10-05T07:07:17.030Z,10.63
2022-10-05T07:10:07.659Z,5.78
2022-10-05T07:12:56.345Z,8.27
2022-10-05T07:15:40.872Z,7.40
2022-10-05T07:18:27.179Z,5.22
2022-10-05T07:21:03.764Z,4.78
2022-10-05T07:24:08.082Z,7.88
2022-10-05T07:26:42.659Z,6.60
2022-10-05T07:29:16.708Z,3.75
2022-10-05T07:31:53.523Z,6.93
2022-10-05T07:34:50.266Z,6.78
2022-10-05T07:37:27.973Z,6.07
2022-10-05T07:40:01.324Z,4.63
2022-10-05T07:42:52.406Z,7.32
2022-10-05T07:45:29.893Z,7.70
2022-10-05T07:48:06.064Z,9.30
2022-10-05T07:50:53.034Z,8.27
2022-10-05T07:53:27.357Z,6.60
2022-10-05T07:55:58.428Z,6.80
2022-10-05T07:58:57.363Z,7.07
2022-10-05T08:01:35.444Z,7.63
2022-10-05T08:04:16.358Z,7.10
2022-10-05T08:06:53.899Z,8.93
2022-10-05T08:09:26.612Z,6.35
2022-10-05T08:12:30.974Z,7.68
2022-10-05T08:15:09.700Z,6.75
2022-10-05T08:17:59.934Z,7.45
2022-10-05T08:20:35.709Z,10.55
2022-10-05T08:23:15.869Z,4.10
2022-10-05T08:29:13.750Z,7.88
2022-10-05T08:31:45.812Z,8.05
2022-10-05T08:34:49.783Z,7.45
2022-10-05T08:37:31.864Z,12.23
2022-10-05T08:40:36.897Z,10.65
2022-10-05T08:43:06.618Z,10.10
2022-10-05T08:45:45.883Z,6.40
2022-10-05T08:48:41.964Z,9.50
2022-10-05T08:51:23.856Z,8.57
2022-10-05T08:54:05.854Z,10.48
2022-10-05T08:56:35.421Z,7.47
2022-10-05T08:59:20.650Z,10.18
2022-10-05T09:02:15.172Z,8.52
2022-10-05T09:04:54.369Z,11.35
2022-10-05T09:07:48.792Z,9.50
2022-10-05T09:10:37.513Z,6.53
2022-10-05T09:13:22.380Z,9.02
2022-10-05T09:16:16.853Z,6.70
2022-10-05T09:19:07.977Z,14.43
2022-10-05T09:21:57.763Z,12.93
2022-10-05T09:24:48.504Z,7.57
2022-10-05T09:27:17.316Z,9.50
2022-10-05T09:30:14.891Z,9.38
2022-10-05T09:33:03.357Z,13.93
2022-10-05T09:36:12.526Z,10.77
2022-10-05T09:39:25.928Z,6.43
2022-10-05T09:42:29.781Z,9.68
2022-10-05T09:44:59.622Z,8.15
2022-10-05T09:47:29.327Z,8.90
2022-10-05T09:50:25.321Z,9.90
2022-10-05T09:53:29.174Z,10.32
2022-10-05T09:55:55.708Z,8.82
2022-10-05T09:58:44.520Z,10.93
2022-10-05T10:01:33.044Z,11.02
2022-10-05T10:04:21.230Z,7.95
2022-10-05T10:07:25.472Z,9.85
2022-10-05T10:10:30.158Z,8.18
2022-10-05T10:13:34.294Z,8.50
2022-10-05T10:16:18.169Z,9.15
2022-10-05T10:19:03.527Z,17.27
2022-10-05T10:21:41.683Z,11.75
2022-10-05T10:24:18.598Z,10.50
2022-10-05T10:27:03.452Z,8.75
2022-10-05T10:29:56.716Z,13.32
2022-10-05T10:32:32.151Z,9.23
2022-10-05T10:35:20.169Z,9.68
2022-10-05T10:37:52.889Z,13.70
2022-10-05T10:40:28.669Z,7.53
2022-10-05T10:43:37.071Z,8.75
2022-10-05T10:49:58.693Z,9.77
2022-10-05T10:53:01.378Z,11.40
2022-10-05T10:55:40.157Z,7.90
2022-10-05T10:58:44.293Z,9.43
2022-10-05T11:01:16.723Z,10.65
2022-10-05T11:04:07.143Z,13.68
2022-10-05T11:06:51.530Z,12.27
2022-10-05T11:09:28.940Z,10.45
2022-10-05T11:12:04.204Z,11.93
2022-10-05T11:14:50.138Z,9.63
2022-10-05T11:17:47.836Z,9.18
2022-10-05T11:20:35.740Z,7.97
2022-10-05T11:23:26.970Z,10.60
2022-10-05T11:26:09.221Z,8.50
2022-10-05T11:29:00.096Z,12.48
2022-10-05T11:31:53.296Z,9.35
2022-10-05T11:34:38.866Z,13.20
2022-10-05T11:37:34.324Z,8.77
2022-10-05T11:40:14.422Z,14.18
2022-10-05T11:42:59.244Z,10.70
2022-10-05T11:45:35.420Z,10.35
2022-10-05T11:48:30.283Z,10.63
2022-10-05T11:51:11.823Z,8.52
2022-10-05T11:54:06.574Z,9.65
2022-10-05T11:56:42.167Z,11.27
2022-10-05T11:59:34.785Z,11.35
2022-10-05T12:02:41.209Z,11.00
2022-10-05T12:05:48.236Z,8.82
2022-10-05T12:08:20.753Z,7.55
2022-10-05T12:11:29.107Z,11.80
2022-10-05T12:13:55.507Z,11.02
2022-10-05T12:16:28.464Z,11.50
2022-10-05T12:19:13.647Z,8.52
2022-10-05T12:21:49.275Z,5.78
2022-10-05T12:24:29.819Z,5.95
2022-10-05T12:27:07.309Z,7.10
2022-10-05T12:29:39.687Z,7.68
2022-10-05T12:32:22.421Z,9.18
2022-10-05T12:35:29.983Z,7.32
2022-10-05T12:38:40.345Z,7.47
2022-10-05T12:41:30.342Z,8.00
2022-10-05T12:44:24.567Z,5.90
2022-10-05T12:47:00.095Z,7.30
2022-10-05T12:49:47.931Z,9.50
2022-10-05T12:52:23.447Z,6.97
2022-10-05T12:55:06.469Z,7.53
2022-10-05T12:57:47.645Z,7.03
2022-10-05T13:00:23.021Z,8.20
2022-10-05T13:02:54.553Z,4.88
2022-10-05T13:08:23.717Z,6.93
2022-10-05T13:11:26.452Z,5.25
2022-10-05T13:14:06.136Z,5.97
2022-10-05T13:16:56.553Z,5.70
2022-10-05T13:19:40.304Z,7.63
2022-10-05T13:22:15.940Z,3.53
2022-10-05T13:25:13.585Z,4.40
2022-10-05T13:27:45.046Z,4.00
2022-10-05T13:30:16.933Z,3.47
2022-10-05T13:32:58.063Z,4.13
2022-10-05T13:35:24.458Z,4.90
2022-10-05T13:38:00.247Z,5.18
2022-10-05T13:40:45.908Z,5.28
2022-10-05T13:43:57.393Z,3.13
2022-10-05T13:46:58.151Z,2.85
2022-10-05T13:49:41.185Z,5.23
2022-10-05T13:52:30.980Z,3.92
2022-10-05T13:55:21.395Z,5.82
2022-10-05T13:58:22.577Z,4.68
2022-10-05T14:00:55.622Z,1.90
2022-10-05T14:03:34.129Z,1.77
2022-10-05T14:06:03.602Z,2.30
2022-10-05T14:08:46.083Z,2.38
2022-10-05T14:11:47.471Z,3.55
2022-10-05T14:14:23.156Z,2.03
2022-10-05T14:19:41.627Z,2.55
2022-10-05T14:22:12.591Z,2.65
2022-10-05T14:24:53.978Z,2.05
2022-10-05T14:30:01.534Z,1.90
2022-10-05T14:32:33.161Z,1.23
2022-10-05T14:35:15.630Z,2.58
2022-10-05T14:37:51.096Z,1.67
2022-10-05T14:41:02.089Z,2.60
2022-10-05T14:43:28.984Z,4.57
2022-10-05T14:46:00.502Z,2.13
2022-10-05T14:48:29.090Z,4.38
2022-10-05T14:50:58.406Z,3.40
2022-10-05T14:53:37.078Z,3.42
2022-10-05T14:56:10.733Z,2.70
2022-10-05T14:59:01.967Z,1.48
2022-10-05T15:01:29.805Z,2.15
2022-10-05T15:04:14.742Z,2.45
2022-10-05T15:07:10.915Z,0.63
2022-10-05T15:09:55.741Z,1.50
2022-10-05T15:12:32.145Z,2.30
2022-10-05T15:15:18.009Z,1.55
2022-10-05T15:17:50.909Z,1.45
2022-10-05T15:20:24.331Z,1.33
2022-10-05T15:22:57.462Z,4.97
2022-10-05T15:25:34.475Z,3.30
2022-10-05T15:28:26.500Z,2.42
2022-10-05T15:31:03.177Z,1.20
2022-10-05T15:33:40.411Z,2.15
2022-10-05T15:36:19.569Z,3.15
2022-10-05T15:39:00.572Z,1.80
2022-10-05T15:41:42.950Z,3.22
2022-10-05T15:44:31.577Z,1.55
2022-10-05T15:47:05.991Z,2.42
2022-10-05T15:49:35.328Z,1.85
2022-10-05T15:52:35.452Z,1.35
2022-10-05T15:55:20.859Z,2.17
2022-10-05T15:57:58.283Z,1.77
2022-10-05T16:00:26.368Z,1.52
2022-10-05T16:03:17.444Z,2.60
2022-10-05T16:05:48.929Z,2.72
2022-10-05T16:08:31.035Z,3.13
2022-10-05T16:10:59.075Z,2.67
2022-10-05T16:13:36.297Z,1.60
2022-10-05T16:16:28.787Z,1.23
2022-10-05T16:19:02.530Z,1.83
2022-10-05T16:21:50.847Z,3.78
2022-10-05T16:24:59.345Z,3.95
2022-10-05T16:27:47.566Z,0.73
2022-10-05T16:30:19.763Z,2.58
2022-10-05T16:32:54.421Z,2.70
2022-10-05T16:35:33.011Z,1.70
2022-10-05T16:38:21.482Z,2.30
2022-10-05T16:40:48.071Z,2.33
2022-10-05T16:43:39.149Z,2.20
2022-10-05T16:46:10.330Z,2.65
2022-10-05T16:51:27.846Z,3.90
2022-10-05T16:54:09.862Z,2.08
2022-10-05T16:56:53.827Z,2.45
2022-10-05T16:59:42.736Z,3.97
2022-10-05T17:02:40.500Z,2.17
2022-10-05T17:05:37.464Z,2.88
2022-10-05T17:08:18.915Z,2.45
2022-10-05T17:15:59.639Z,2.72
2022-10-05T17:18:56.969Z,2.58
2022-10-05T17:21:27.039Z,3.97
2022-10-05T17:24:28.251Z,2.40
2022-10-05T17:27:13.233Z,2.15
2022-10-05T17:29:48.890Z,4.03
2022-10-05T17:32:15.301Z,2.85
2022-10-05T17:35:00.103Z,4.95
2022-10-05T17:37:39.083Z,4.35
2022-10-05T17:40:37.722Z,4.15
2022-10-05T17:43:16.319Z,5.82
2022-10-05T17:45:42.719Z,3.22
2022-10-05T17:48:33.355Z,3.05
2022-10-05T17:50:59.865Z,3.38
2022-10-05T17:53:44.483Z,4.13
2022-10-05T17:56:10.992Z,3.95
2022-10-05T17:58:49.427Z,3.00
2022-10-05T18:01:39.836Z,4.65
2022-10-05T18:04:12.405Z,5.03
2022-10-05T18:07:05.242Z,6.05
2022-10-05T18:09:34.885Z,7.07
2022-10-05T18:12:16.859Z,5.28
2022-10-05T18:15:01.495Z,7.72
2022-10-05T18:17:37.039Z,8.13
2022-10-05T18:20:15.579Z,9.18
2022-10-05T18:22:42.095Z,11.13
2022-10-05T18:25:23.287Z,6.20
2022-10-05T18:27:57.962Z,9.63
2022-10-05T18:30:26.790Z,9.68
2022-10-05T18:33:26.073Z,7.30
2022-10-05T18:36:18.787Z,8.40
2022-10-05T18:38:58.879Z,10.23
2022-10-05T18:41:51.422Z,7.55
2022-10-05T18:44:33.976Z,7.32
2022-10-05T18:47:39.006Z,7.57
2022-10-05T18:50:14.966Z,9.80
2022-10-05T18:53:07.945Z,7.30
2022-10-05T18:55:56.002Z,7.30
2022-10-05T18:58:29.777Z,7.18
2022-10-05T19:01:05.604Z,8.27
2022-10-05T19:03:55.436Z,9.38
2022-10-05T19:07:14.023Z,4.57
2022-10-05T19:10:01.982Z,4.15
2022-10-05T19:12:46.745Z,5.65
2022-10-05T19:15:17.117Z,3.47
2022-10-05T19:18:07.912Z,5.85
2022-10-05T19:21:05.438Z,4.55
2022-10-05T19:23:56.592Z,4.68
2022-10-05T19:26:38.154Z,8.48
2022-10-05T19:29:16.694Z,6.60
2022-10-05T19:31:53.018Z,6.90
2022-10-05T19:34:50.518Z,6.13
2022-10-05T19:37:34.642Z,4.32
2022-10-05T19:40:22.232Z,5.90
2022-10-05T19:43:07.398Z,7.57
2022-10-05T19:45:43.168Z,4.60
2022-10-05T19:48:28.349Z,7.28
2022-10-05T19:51:00.117Z,8.45
2022-10-05T19:55:56.596Z,6.60
2022-10-05T19:58:26.220Z,7.60
2022-10-05T20:01:01.664Z,7.50
2022-10-05T20:03:32.824Z,6.72
2022-10-05T20:06:10.335Z,5.00
2022-10-05T20:08:42.802Z,8.02
2022-10-05T20:11:15.183Z,10.82
2022-10-05T20:13:44.582Z,11.05
2022-10-05T20:16:17.064Z,8.57
2022-10-05T20:18:43.497Z,7.90
2022-10-05T20:21:41.988Z,6.50
2022-10-05T20:24:15.870Z,10.20
2022-10-05T20:26:44.209Z,7.78
2022-10-05T20:29:10.636Z,7.15
2022-10-05T20:31:37.120Z,11.07
2022-10-05T20:34:03.689Z,7.85
2022-10-05T20:36:30.124Z,9.18
2022-10-05T20:38:56.524Z,5.40
2022-10-05T20:41:22.979Z,8.00
2022-10-05T20:43:49.438Z,10.95
2022-10-05T20:46:15.851Z,11.25
2022-10-05T20:48:42.340Z,8.40
2022-10-05T20:51:08.767Z,9.75
2022-10-05T20:53:35.205Z,9.70
2022-10-05T20:56:02.063Z,8.27
2022-10-05T20:58:28.686Z,6.43
2022-10-05T21:00:55.625Z,8.63
2022-10-05T21:03:22.107Z,9.48
2022-10-05T21:05:48.523Z,7.90
2022-10-05T21:08:14.965Z,9.10
2022-10-05T21:10:41.431Z,8.27
2022-10-05T21:13:07.946Z,15.02
2022-10-05T21:15:34.472Z,7.43
2022-10-05T21:18:00.919Z,7.47
2022-10-05T21:20:27.318Z,11.98
2022-10-05T21:22:53.760Z,11.02
2022-10-05T21:25:20.193Z,9.82
2022-10-05T21:27:46.653Z,9.50
2022-10-05T21:30:13.226Z,6.50
2022-10-05T21:32:44.232Z,11.20
2022-10-05T21:37:37.885Z,9.77
2022-10-05T21:40:04.700Z,10.18
2022-10-05T21:42:32.390Z,14.00
2022-10-05T21:44:58.863Z,9.65
2022-10-05T21:47:25.800Z,11.75
2022-10-05T21:49:52.520Z,7.22
2022-10-05T21:52:19.561Z,12.98
2022-10-05T21:54:46.149Z,9.50
2022-10-05T21:57:12.750Z,7.13
2022-10-05T21:59:40.216Z,9.32
2022-10-05T22:02:07.005Z,10.88
2022-10-05T22:04:33.492Z,17.10
2022-10-05T22:06:59.936Z,6.40
2022-10-05T22:09:26.530Z,16.95
2022-10-05T22:11:52.941Z,8.10
2022-10-05T22:14:19.612Z,10.25
2022-10-05T22:16:46.146Z,7.95
2022-10-05T22:19:16.471Z,11.48
2022-10-05T22:21:42.934Z,9.93
2022-10-05T22:24:10.243Z,13.70
2022-10-05T22:26:36.886Z,10.48
2022-10-05T22:29:03.661Z,13.43
2022-10-05T22:31:30.319Z,8.32
2022-10-05T22:33:56.846Z,16.20
2022-10-05T22:36:23.559Z,12.35
2022-10-05T22:38:50.049Z,11.77
2022-10-05T22:41:16.544Z,15.60
2022-10-05T22:43:43.043Z,10.70
2022-10-05T22:46:13.423Z,13.85
2022-10-05T22:48:40.231Z,12.65
2022-10-05T22:51:07.210Z,13.23
2022-10-05T22:53:34.299Z,10.70
2022-10-05T22:56:13.089Z,11.05
2022-10-05T22:58:41.431Z,14.52
2022-10-05T23:01:10.845Z,14.10
2022-10-05T23:03:39.822Z,17.33
2022-10-05T23:06:10.043Z,15.07
2022-10-05T23:08:37.963Z,14.90
2022-10-05T23:11:10.646Z,15.60
2022-10-05T23:13:37.169Z,16.95
2022-10-05T23:16:11.147Z,15.18
2022-10-05T23:18:37.685Z,14.60
2022-10-05T23:21:05.628Z,12.13
2022-10-05T23:23:32.113Z,11.55
2022-10-05T23:26:00.020Z,14.65
2022-10-05T23:28:27.844Z,17.63
2022-10-05T23:31:02.735Z,18.42
2022-10-05T23:33:29.481Z,16.73
2022-10-05T23:36:08.748Z,13.20
2022-10-05T23:38:35.916Z,14.35
2022-10-05T23:41:02.606Z,20.20
2022-10-05T23:43:29.477Z,14.43
2022-10-05T23:45:56.304Z,13.02
2022-10-05T23:48:22.858Z,11.13
2022-10-05T23:50:49.824Z,12.73
2022-10-05T23:53:17.197Z,16.13
2022-10-05T23:55:44.091Z,16.70
2022-10-05T23:58:10.982Z,15.15
